Siam — SGIP — position and weather

sailwx.info

Track history (hours):
 
Tides and Currents Weather Stations Pressure Air Temp Water Temp Dewpoint Dewpoint Depression Visibility Wind Speed Wind Dir Waves Ship Positions

Siam

Last reported at 2016-Jul-01 11:33 UTC. Time now 2016-Jul-01 11:45 UTC.
Position N 55°60' E 012°45'.

Length 22 m.

Type: Passenger vessel. MMSI: 265572320.

Date/timePositionNaut miles runAvg speedWind from/ knotsBaromVisibWave heightAir tempDewpointWater temp
2016-Jul-01 11:33N 55°60' E 012°45'0 0.1
2016-Jul-01 10:28N 55°60' E 012°45'0 0.0
2016-Jul-01 09:28N 55°60' E 012°45'0 0.0
2016-Jul-01 08:28N 55°60' E 012°45'0 0.0
2016-Jul-01 07:29N 55°60' E 012°45'0 0.0
2016-Jul-01 06:32N 55°60' E 012°45'0 0.0
2016-Jul-01 04:29N 55°60' E 012°45'0 0.0
2016-Jul-01 03:29N 55°60' E 012°45'0 0.0
2016-Jul-01 02:32N 55°60' E 012°45'0 0.0
2016-Jul-01 01:32N 55°60' E 012°45'0 0.0
2016-Jul-01 00:32N 55°60' E 012°45'0 0.0
2016-Jun-30 23:32N 55°60' E 012°45'0 0.0
2016-Jun-30 22:32N 55°60' E 012°45'0 0.0
2016-Jun-30 21:32N 55°60' E 012°45'0 0.0
2016-Jun-30 20:29N 55°60' E 012°45'0 0.0
2016-Jun-30 19:32N 55°60' E 012°45'0 0.0
2016-Jun-30 18:32N 55°60' E 012°45'0 0.0
2016-Jun-30 17:32N 55°60' E 012°45'0 0.0
2016-Jun-30 16:29N 55°60' E 012°45'0 0.0
2016-Jun-30 15:29N 55°60' E 012°45'0 0.0
2016-Jun-30 14:29N 55°60' E 012°45'0 0.0
2016-Jun-30 13:29N 55°60' E 012°45'0 0.0
2016-Jun-30 12:29N 55°60' E 012°45'4 3.9
2016-Jun-30 11:32N 55°56' E 012°42'0 0.5
2016-Jun-30 10:33N 55°56' E 012°42'0 0.1
2016-Jun-30 09:32N 55°56' E 012°42'0 0.5
2016-Jun-30 08:33N 55°56' E 012°42'5 5.3
2016-Jun-30 07:33N 56°01' E 012°40'2 2.2
2016-Jun-30 06:32N 55°59' E 012°42'2 1.6
2016-Jun-30 05:32N 55°60' E 012°45'0 0.0
2016-Jun-30 04:32N 55°60' E 012°45'0 0.0
2016-Jun-30 03:32N 55°60' E 012°45'0 0.0
2016-Jun-30 02:32N 55°60' E 012°45'0 0.0
2016-Jun-30 01:32N 55°60' E 012°45'0 0.0
2016-Jun-30 00:32N 55°60' E 012°45'0 0.0
2016-Jun-29 23:32N 55°60' E 012°45'0 0.0
2016-Jun-29 22:32N 55°60' E 012°45'0 0.0
2016-Jun-29 21:32N 55°60' E 012°45'0 0.0
2016-Jun-29 20:32N 55°60' E 012°45'0 0.0
2016-Jun-29 19:33N 55°60' E 012°45'0 0.0
2016-Jun-29 18:33N 55°60' E 012°45'0 0.0
2016-Jun-29 17:33N 55°60' E 012°45'0 0.0
2016-Jun-29 16:33N 55°60' E 012°45'0 0.0
2016-Jun-29 15:33N 55°60' E 012°45'0 0.0
2016-Jun-29 14:33N 55°60' E 012°45'0 0.0
2016-Jun-29 13:33N 55°60' E 012°45'0 0.0
2016-Jun-29 12:30N 55°60' E 012°45'0 0.0
2016-Jun-29 11:30N 55°60' E 012°45'0 0.0
2016-Jun-29 10:33N 55°60' E 012°45'2 1.9
2016-Jun-29 09:33N 56°00' E 012°41'0 0.2
2016-Jun-29 08:33N 55°60' E 012°42'1 0.9
2016-Jun-29 07:33N 55°59' E 012°42'0 0.4
2016-Jun-29 06:33N 55°59' E 012°41'2 2.0
2016-Jun-29 05:31N 55°60' E 012°45'0 0.0
2016-Jun-29 04:31N 55°60' E 012°45'0 0.0
2016-Jun-29 03:31N 55°60' E 012°45'0 0.0
2016-Jun-29 02:31N 55°60' E 012°45'0 0.0
2016-Jun-29 01:31N 55°60' E 012°45'0 0.0
2016-Jun-29 00:31N 55°60' E 012°45'0 0.0
2016-Jun-28 23:31N 55°60' E 012°45'0 0.0
2016-Jun-28 22:31N 55°60' E 012°45'0 0.0
2016-Jun-28 21:31N 55°60' E 012°45'0 0.0
2016-Jun-28 20:31N 55°60' E 012°45'0 0.0
2016-Jun-28 19:31N 55°60' E 012°45'0 0.0
2016-Jun-28 18:31N 55°60' E 012°45'0 0.0
2016-Jun-28 17:28N 55°60' E 012°45'0 0.0
2016-Jun-28 16:28N 55°60' E 012°45'0 0.0
2016-Jun-28 15:31N 55°60' E 012°45'0 0.0
2016-Jun-28 14:31N 55°60' E 012°45'0 0.0
2016-Jun-28 13:31N 55°60' E 012°45'0 0.0
2016-Jun-28 12:31N 55°60' E 012°45'0 0.0
2016-Jun-28 11:31N 55°60' E 012°45'0 0.0
2016-Jun-28 10:31N 55°60' E 012°45'2 1.7
2016-Jun-28 09:33N 55°60' E 012°42'3 3.4
2016-Jun-28 08:32N 55°56' E 012°42'2 2.2
2016-Jun-28 07:32N 55°59' E 012°41'0 0.1
2016-Jun-28 06:33N 55°59' E 012°41'2 1.0
2016-Jun-28 04:32N 55°60' E 012°45'0 0.0
2016-Jun-28 03:32N 55°60' E 012°45'0 0.0
2016-Jun-28 02:32N 55°60' E 012°45'0 0.0
2016-Jun-28 01:32N 55°60' E 012°45'0 0.0
2016-Jun-28 00:32N 55°60' E 012°45'0 0.0
2016-Jun-27 23:29N 55°60' E 012°45'0 0.0
2016-Jun-27 22:32N 55°60' E 012°45'0 0.0
2016-Jun-27 21:32N 55°60' E 012°45'0 0.0
2016-Jun-27 20:32N 55°60' E 012°45'0 0.0
2016-Jun-27 19:32N 55°60' E 012°45'0 0.0
2016-Jun-27 18:29N 55°60' E 012°45'0 0.0
2016-Jun-27 17:32N 55°60' E 012°45'0 0.0
2016-Jun-27 16:32N 55°60' E 012°45'0 0.0
2016-Jun-27 15:32N 55°60' E 012°45'0 0.0
2016-Jun-27 14:32N 55°60' E 012°45'0 0.0
2016-Jun-27 13:32N 55°60' E 012°45'0 0.0
2016-Jun-27 12:32N 55°60' E 012°45'0 0.0
2016-Jun-27 10:28N 55°60' E 012°45'0 0.0
2016-Jun-27 09:31N 55°60' E 012°45'0 0.0
2016-Jun-27 08:28N 55°60' E 012°45'0 0.0
2016-Jun-27 07:34N 55°60' E 012°45'0 0.0
2016-Jun-27 06:25N 55°60' E 012°45'0 0.0
2016-Jun-27 05:31N 55°60' E 012°45'0 0.0
2016-Jun-27 04:31N 55°60' E 012°45'0 0.0
2016-Jun-27 03:28N 55°60' E 012°45'0 0.0
2016-Jun-27 02:31N 55°60' E 012°45'0 0.0
2016-Jun-27 01:31N 55°60' E 012°45'0 0.0
2016-Jun-27 00:31N 55°60' E 012°45'0 0.0
2016-Jun-26 23:31N 55°60' E 012°45'0 0.0
2016-Jun-26 22:31N 55°60' E 012°45'0 0.0
2016-Jun-26 21:31N 55°60' E 012°45'0 0.0
2016-Jun-26 20:31N 55°60' E 012°45'0 0.0
2016-Jun-26 19:28N 55°60' E 012°45'0 0.0
2016-Jun-26 18:31N 55°60' E 012°45'0 0.0
2016-Jun-26 17:28N 55°60' E 012°45'0 0.0
2016-Jun-26 16:25N 55°60' E 012°45'0 0.0
2016-Jun-26 15:31N 55°60' E 012°45'0 0.0
2016-Jun-26 14:31N 55°60' E 012°45'0 0.0
2016-Jun-26 13:31N 55°60' E 012°45'0 0.0
2016-Jun-26 12:31N 55°60' E 012°45'2 2.1
2016-Jun-26 11:33N 55°59' E 012°42'2 2.0
2016-Jun-26 10:33N 55°60' E 012°45'4 3.7
2016-Jun-26 09:33N 55°56' E 012°42'1 0.7
2016-Jun-26 08:33N 55°56' E 012°41'2 2.1
2016-Jun-26 07:33N 55°58' E 012°42'1 0.6
2016-Jun-26 06:33N 55°59' E 012°41'2 1.9
2016-Jun-26 05:29N 55°60' E 012°45'0 0.0
2016-Jun-26 04:32N 55°60' E 012°45'0 0.0
2016-Jun-26 03:32N 55°60' E 012°45'0 0.0
2016-Jun-26 02:32N 55°60' E 012°45'0 0.0
2016-Jun-26 01:32N 55°60' E 012°45'0 0.0
2016-Jun-26 00:32N 55°60' E 012°45'0 0.0
2016-Jun-25 23:29N 55°60' E 012°45'0 0.0
2016-Jun-25 22:32N 55°60' E 012°45'0 0.0
2016-Jun-25 21:32N 55°60' E 012°45'0 0.0
2016-Jun-25 20:32N 55°60' E 012°45'0 0.0
2016-Jun-25 19:32N 55°60' E 012°45'0 0.0
2016-Jun-25 18:32N 55°60' E 012°45'0 0.0
2016-Jun-25 17:32N 55°60' E 012°45'0 0.0
2016-Jun-25 16:32N 55°60' E 012°45'0 0.0
2016-Jun-25 15:29N 55°60' E 012°45'0 0.0
2016-Jun-25 14:32N 55°60' E 012°45'0 0.0
2016-Jun-25 13:32N 55°60' E 012°45'0 0.0
2016-Jun-25 12:32N 55°60' E 012°45'0 0.0
2016-Jun-25 11:32N 55°60' E 012°45'0 0.0
2016-Jun-25 10:29N 55°60' E 012°45'0 0.0
2016-Jun-25 09:32N 55°60' E 012°45'0 0.0
2016-Jun-25 08:29N 55°60' E 012°45'0 0.0
2016-Jun-25 07:20N 55°60' E 012°45'0 0.0
2016-Jun-25 06:32N 55°60' E 012°45'0 0.0
2016-Jun-25 05:32N 55°60' E 012°45'0 0.0
2016-Jun-25 04:23N 55°60' E 012°45'0 0.0
2016-Jun-25 03:32N 55°60' E 012°45'0 0.0
2016-Jun-25 02:29N 55°60' E 012°45'0 0.0
2016-Jun-25 01:32N 55°60' E 012°45'0 0.0
2016-Jun-25 00:29N 55°60' E 012°45'0 0.0
2016-Jun-24 23:32N 55°60' E 012°45'0 0.0
2016-Jun-24 22:29N 55°60' E 012°45'0 0.0
2016-Jun-24 21:29N 55°60' E 012°45'0 0.0
2016-Jun-24 20:32N 55°60' E 012°45'0 0.0
2016-Jun-24 19:32N 55°60' E 012°45'0 0.0
2016-Jun-24 18:32N 55°60' E 012°45'0 0.0
2016-Jun-24 17:32N 55°60' E 012°45'0 0.0
2016-Jun-24 16:32N 55°60' E 012°45'0 0.0
2016-Jun-24 15:32N 55°60' E 012°45'0 0.0
2016-Jun-24 14:32N 55°60' E 012°45'0 0.0
2016-Jun-24 13:32N 55°60' E 012°45'0 0.0
2016-Jun-24 12:32N 55°60' E 012°45'0 0.0
2016-Jun-24 11:32N 55°60' E 012°45'0 0.0
2016-Jun-24 10:26N 55°60' E 012°45'0 0.0
2016-Jun-24 09:32N 55°60' E 012°45'0 0.0
2016-Jun-24 08:32N 55°60' E 012°45'0 0.0
2016-Jun-24 07:30N 55°60' E 012°45'0 0.0
2016-Jun-24 04:30N 55°60' E 012°45'0 0.0
2016-Jun-24 03:33N 55°60' E 012°45'0 0.0
2016-Jun-24 02:21N 55°60' E 012°45'0 0.0
2016-Jun-24 01:33N 55°60' E 012°45'0 0.0
2016-Jun-24 00:33N 55°60' E 012°45'0 0.0
2016-Jun-23 23:30N 55°60' E 012°45'0 0.0
2016-Jun-23 22:30N 55°60' E 012°45'0 0.0
2016-Jun-23 21:33N 55°60' E 012°45'0 0.0
2016-Jun-23 20:24N 55°60' E 012°45'0 0.0
2016-Jun-23 19:27N 55°60' E 012°45'0 0.0
2016-Jun-23 18:30N 55°60' E 012°45'0 0.0
2016-Jun-23 17:24N 55°60' E 012°45'0 0.0
2016-Jun-23 16:24N 55°60' E 012°45'0 0.0
2016-Jun-23 15:30N 55°60' E 012°45'0 0.0
2016-Jun-23 14:33N 55°60' E 012°45'0 0.0
2016-Jun-23 13:33N 55°60' E 012°45'0 0.0
2016-Jun-23 12:33N 55°60' E 012°45'4 4.4
2016-Jun-23 11:33N 55°57' E 012°39'2 1.7
2016-Jun-23 10:33N 55°57' E 012°41'3 3.5
2016-Jun-23 09:33N 56°01' E 012°41'1 1.2
2016-Jun-23 08:33N 55°60' E 012°42'1 0.6
2016-Jun-23 07:31N 56°00' E 012°41'2 1.0
2016-Jun-23 05:32N 55°60' E 012°45'0 0.0
2016-Jun-23 04:29N 55°60' E 012°45'0 0.0
2016-Jun-23 03:32N 55°60' E 012°45'0 0.0
2016-Jun-23 02:32N 55°60' E 012°45'0 0.0
2016-Jun-23 01:26N 55°60' E 012°45'0 0.0
2016-Jun-23 00:32N 55°60' E 012°45'0 0.0
2016-Jun-22 23:32N 55°60' E 012°45'0 0.0
2016-Jun-22 22:32N 55°60' E 012°45'0 0.0
2016-Jun-22 21:29N 55°60' E 012°45'0 0.0
2016-Jun-22 20:32N 55°60' E 012°45'0 0.0
2016-Jun-22 19:29N 55°60' E 012°45'0 0.0
2016-Jun-22 18:20N 55°60' E 012°45'0 0.0
2016-Jun-22 17:26N 55°60' E 012°45'2 0.2
2016-Jun-22 09:33N 56°01' E 012°42'1 0.5
2016-Jun-22 08:32N 55°60' E 012°42'0 0.2
2016-Jun-22 07:31N 55°60' E 012°42'1 0.8
2016-Jun-22 06:09N 55°59' E 012°43'1 0.3
2016-Jun-22 02:24N 55°60' E 012°45'  
Track history (hours):
 
Tides and Currents Weather Stations Pressure Air Temp Water Temp Dewpoint Dewpoint Depression Visibility Wind Speed Wind Dir Waves Ship Positions

Siam

Last reported at 2016-Jul-01 11:33 UTC. Time now 2016-Jul-01 11:45 UTC.
Position N 55°60' E 012°45'.

Length 22 m.

Type: Passenger vessel. MMSI: 265572320.

Date/timePositionNaut miles runAvg speedWind from/ knotsBaromVisibWave heightAir tempDewpointWater temp
2016-Jul-01 11:33N 55°60' E 012°45'0 0.1
2016-Jul-01 10:28N 55°60' E 012°45'0 0.0
2016-Jul-01 09:28N 55°60' E 012°45'0 0.0
2016-Jul-01 08:28N 55°60' E 012°45'0 0.0
2016-Jul-01 07:29N 55°60' E 012°45'0 0.0
2016-Jul-01 06:32N 55°60' E 012°45'0 0.0
2016-Jul-01 04:29N 55°60' E 012°45'0 0.0
2016-Jul-01 03:29N 55°60' E 012°45'0 0.0
2016-Jul-01 02:32N 55°60' E 012°45'0 0.0
2016-Jul-01 01:32N 55°60' E 012°45'0 0.0
2016-Jul-01 00:32N 55°60' E 012°45'0 0.0
2016-Jun-30 23:32N 55°60' E 012°45'0 0.0
2016-Jun-30 22:32N 55°60' E 012°45'0 0.0
2016-Jun-30 21:32N 55°60' E 012°45'0 0.0
2016-Jun-30 20:29N 55°60' E 012°45'0 0.0
2016-Jun-30 19:32N 55°60' E 012°45'0 0.0
2016-Jun-30 18:32N 55°60' E 012°45'0 0.0
2016-Jun-30 17:32N 55°60' E 012°45'0 0.0
2016-Jun-30 16:29N 55°60' E 012°45'0 0.0
2016-Jun-30 15:29N 55°60' E 012°45'0 0.0
2016-Jun-30 14:29N 55°60' E 012°45'0 0.0
2016-Jun-30 13:29N 55°60' E 012°45'0 0.0
2016-Jun-30 12:29N 55°60' E 012°45'4 3.9
2016-Jun-30 11:32N 55°56' E 012°42'0 0.5
2016-Jun-30 10:33N 55°56' E 012°42'0 0.1
2016-Jun-30 09:32N 55°56' E 012°42'0 0.5
2016-Jun-30 08:33N 55°56' E 012°42'5 5.3
2016-Jun-30 07:33N 56°01' E 012°40'2 2.2
2016-Jun-30 06:32N 55°59' E 012°42'2 1.6
2016-Jun-30 05:32N 55°60' E 012°45'0 0.0
2016-Jun-30 04:32N 55°60' E 012°45'0 0.0
2016-Jun-30 03:32N 55°60' E 012°45'0 0.0
2016-Jun-30 02:32N 55°60' E 012°45'0 0.0
2016-Jun-30 01:32N 55°60' E 012°45'0 0.0
2016-Jun-30 00:32N 55°60' E 012°45'0 0.0
2016-Jun-29 23:32N 55°60' E 012°45'0 0.0
2016-Jun-29 22:32N 55°60' E 012°45'0 0.0
2016-Jun-29 21:32N 55°60' E 012°45'0 0.0
2016-Jun-29 20:32N 55°60' E 012°45'0 0.0
2016-Jun-29 19:33N 55°60' E 012°45'0 0.0
2016-Jun-29 18:33N 55°60' E 012°45'0 0.0
2016-Jun-29 17:33N 55°60' E 012°45'0 0.0
2016-Jun-29 16:33N 55°60' E 012°45'0 0.0
2016-Jun-29 15:33N 55°60' E 012°45'0 0.0
2016-Jun-29 14:33N 55°60' E 012°45'0 0.0
2016-Jun-29 13:33N 55°60' E 012°45'0 0.0
2016-Jun-29 12:30N 55°60' E 012°45'0 0.0
2016-Jun-29 11:30N 55°60' E 012°45'0 0.0
2016-Jun-29 10:33N 55°60' E 012°45'2 1.9
2016-Jun-29 09:33N 56°00' E 012°41'0 0.2
2016-Jun-29 08:33N 55°60' E 012°42'1 0.9
2016-Jun-29 07:33N 55°59' E 012°42'0 0.4
2016-Jun-29 06:33N 55°59' E 012°41'2 2.0
2016-Jun-29 05:31N 55°60' E 012°45'0 0.0
2016-Jun-29 04:31N 55°60' E 012°45'0 0.0
2016-Jun-29 03:31N 55°60' E 012°45'0 0.0
2016-Jun-29 02:31N 55°60' E 012°45'0 0.0
2016-Jun-29 01:31N 55°60' E 012°45'0 0.0
2016-Jun-29 00:31N 55°60' E 012°45'0 0.0
2016-Jun-28 23:31N 55°60' E 012°45'0 0.0
2016-Jun-28 22:31N 55°60' E 012°45'0 0.0
2016-Jun-28 21:31N 55°60' E 012°45'0 0.0
2016-Jun-28 20:31N 55°60' E 012°45'0 0.0
2016-Jun-28 19:31N 55°60' E 012°45'0 0.0
2016-Jun-28 18:31N 55°60' E 012°45'0 0.0
2016-Jun-28 17:28N 55°60' E 012°45'0 0.0
2016-Jun-28 16:28N 55°60' E 012°45'0 0.0
2016-Jun-28 15:31N 55°60' E 012°45'0 0.0
2016-Jun-28 14:31N 55°60' E 012°45'0 0.0
2016-Jun-28 13:31N 55°60' E 012°45'0 0.0
2016-Jun-28 12:31N 55°60' E 012°45'0 0.0
2016-Jun-28 11:31N 55°60' E 012°45'0 0.0
2016-Jun-28 10:31N 55°60' E 012°45'2 1.7
2016-Jun-28 09:33N 55°60' E 012°42'3 3.4
2016-Jun-28 08:32N 55°56' E 012°42'2 2.2
2016-Jun-28 07:32N 55°59' E 012°41'0 0.1
2016-Jun-28 06:33N 55°59' E 012°41'2 1.0
2016-Jun-28 04:32N 55°60' E 012°45'0 0.0
2016-Jun-28 03:32N 55°60' E 012°45'0 0.0
2016-Jun-28 02:32N 55°60' E 012°45'0 0.0
2016-Jun-28 01:32N 55°60' E 012°45'0 0.0
2016-Jun-28 00:32N 55°60' E 012°45'0 0.0
2016-Jun-27 23:29N 55°60' E 012°45'0 0.0
2016-Jun-27 22:32N 55°60' E 012°45'0 0.0
2016-Jun-27 21:32N 55°60' E 012°45'0 0.0
2016-Jun-27 20:32N 55°60' E 012°45'0 0.0
2016-Jun-27 19:32N 55°60' E 012°45'0 0.0
2016-Jun-27 18:29N 55°60' E 012°45'0 0.0
2016-Jun-27 17:32N 55°60' E 012°45'0 0.0
2016-Jun-27 16:32N 55°60' E 012°45'0 0.0
2016-Jun-27 15:32N 55°60' E 012°45'0 0.0
2016-Jun-27 14:32N 55°60' E 012°45'0 0.0
2016-Jun-27 13:32N 55°60' E 012°45'0 0.0
2016-Jun-27 12:32N 55°60' E 012°45'0 0.0
2016-Jun-27 10:28N 55°60' E 012°45'0 0.0
2016-Jun-27 09:31N 55°60' E 012°45'0 0.0
2016-Jun-27 08:28N 55°60' E 012°45'0 0.0
2016-Jun-27 07:34N 55°60' E 012°45'0 0.0
2016-Jun-27 06:25N 55°60' E 012°45'0 0.0
2016-Jun-27 05:31N 55°60' E 012°45'0 0.0
2016-Jun-27 04:31N 55°60' E 012°45'0 0.0
2016-Jun-27 03:28N 55°60' E 012°45'0 0.0
2016-Jun-27 02:31N 55°60' E 012°45'0 0.0
2016-Jun-27 01:31N 55°60' E 012°45'0 0.0
2016-Jun-27 00:31N 55°60' E 012°45'0 0.0
2016-Jun-26 23:31N 55°60' E 012°45'0 0.0
2016-Jun-26 22:31N 55°60' E 012°45'0 0.0
2016-Jun-26 21:31N 55°60' E 012°45'0 0.0
2016-Jun-26 20:31N 55°60' E 012°45'0 0.0
2016-Jun-26 19:28N 55°60' E 012°45'0 0.0
2016-Jun-26 18:31N 55°60' E 012°45'0 0.0
2016-Jun-26 17:28N 55°60' E 012°45'0 0.0
2016-Jun-26 16:25N 55°60' E 012°45'0 0.0
2016-Jun-26 15:31N 55°60' E 012°45'0 0.0
2016-Jun-26 14:31N 55°60' E 012°45'0 0.0
2016-Jun-26 13:31N 55°60' E 012°45'0 0.0
2016-Jun-26 12:31N 55°60' E 012°45'2 2.1
2016-Jun-26 11:33N 55°59' E 012°42'2 2.0
2016-Jun-26 10:33N 55°60' E 012°45'4 3.7
2016-Jun-26 09:33N 55°56' E 012°42'1 0.7
2016-Jun-26 08:33N 55°56' E 012°41'2 2.1
2016-Jun-26 07:33N 55°58' E 012°42'1 0.6
2016-Jun-26 06:33N 55°59' E 012°41'2 1.9
2016-Jun-26 05:29N 55°60' E 012°45'0 0.0
2016-Jun-26 04:32N 55°60' E 012°45'0 0.0
2016-Jun-26 03:32N 55°60' E 012°45'0 0.0
2016-Jun-26 02:32N 55°60' E 012°45'0 0.0
2016-Jun-26 01:32N 55°60' E 012°45'0 0.0
2016-Jun-26 00:32N 55°60' E 012°45'0 0.0
2016-Jun-25 23:29N 55°60' E 012°45'0 0.0
2016-Jun-25 22:32N 55°60' E 012°45'0 0.0
2016-Jun-25 21:32N 55°60' E 012°45'0 0.0
2016-Jun-25 20:32N 55°60' E 012°45'0 0.0
2016-Jun-25 19:32N 55°60' E 012°45'0 0.0
2016-Jun-25 18:32N 55°60' E 012°45'0 0.0
2016-Jun-25 17:32N 55°60' E 012°45'0 0.0
2016-Jun-25 16:32N 55°60' E 012°45'0 0.0
2016-Jun-25 15:29N 55°60' E 012°45'0 0.0
2016-Jun-25 14:32N 55°60' E 012°45'0 0.0
2016-Jun-25 13:32N 55°60' E 012°45'0 0.0
2016-Jun-25 12:32N 55°60' E 012°45'0 0.0
2016-Jun-25 11:32N 55°60' E 012°45'0 0.0
2016-Jun-25 10:29N 55°60' E 012°45'0 0.0
2016-Jun-25 09:32N 55°60' E 012°45'0 0.0
2016-Jun-25 08:29N 55°60' E 012°45'0 0.0
2016-Jun-25 07:20N 55°60' E 012°45'0 0.0
2016-Jun-25 06:32N 55°60' E 012°45'0 0.0
2016-Jun-25 05:32N 55°60' E 012°45'0 0.0
2016-Jun-25 04:23N 55°60' E 012°45'0 0.0
2016-Jun-25 03:32N 55°60' E 012°45'0 0.0
2016-Jun-25 02:29N 55°60' E 012°45'0 0.0
2016-Jun-25 01:32N 55°60' E 012°45'0 0.0
2016-Jun-25 00:29N 55°60' E 012°45'0 0.0
2016-Jun-24 23:32N 55°60' E 012°45'0 0.0
2016-Jun-24 22:29N 55°60' E 012°45'0 0.0
2016-Jun-24 21:29N 55°60' E 012°45'0 0.0
2016-Jun-24 20:32N 55°60' E 012°45'0 0.0
2016-Jun-24 19:32N 55°60' E 012°45'0 0.0
2016-Jun-24 18:32N 55°60' E 012°45'0 0.0
2016-Jun-24 17:32N 55°60' E 012°45'0 0.0
2016-Jun-24 16:32N 55°60' E 012°45'0 0.0
2016-Jun-24 15:32N 55°60' E 012°45'0 0.0
2016-Jun-24 14:32N 55°60' E 012°45'0 0.0
2016-Jun-24 13:32N 55°60' E 012°45'0 0.0
2016-Jun-24 12:32N 55°60' E 012°45'0 0.0
2016-Jun-24 11:32N 55°60' E 012°45'0 0.0
2016-Jun-24 10:26N 55°60' E 012°45'0 0.0
2016-Jun-24 09:32N 55°60' E 012°45'0 0.0
2016-Jun-24 08:32N 55°60' E 012°45'0 0.0
2016-Jun-24 07:30N 55°60' E 012°45'0 0.0
2016-Jun-24 04:30N 55°60' E 012°45'0 0.0
2016-Jun-24 03:33N 55°60' E 012°45'0 0.0
2016-Jun-24 02:21N 55°60' E 012°45'0 0.0
2016-Jun-24 01:33N 55°60' E 012°45'0 0.0
2016-Jun-24 00:33N 55°60' E 012°45'0 0.0
2016-Jun-23 23:30N 55°60' E 012°45'0 0.0
2016-Jun-23 22:30N 55°60' E 012°45'0 0.0
2016-Jun-23 21:33N 55°60' E 012°45'0 0.0
2016-Jun-23 20:24N 55°60' E 012°45'0 0.0
2016-Jun-23 19:27N 55°60' E 012°45'0 0.0
2016-Jun-23 18:30N 55°60' E 012°45'0 0.0
2016-Jun-23 17:24N 55°60' E 012°45'0 0.0
2016-Jun-23 16:24N 55°60' E 012°45'0 0.0
2016-Jun-23 15:30N 55°60' E 012°45'0 0.0
2016-Jun-23 14:33N 55°60' E 012°45'0 0.0
2016-Jun-23 13:33N 55°60' E 012°45'0 0.0
2016-Jun-23 12:33N 55°60' E 012°45'4 4.4
2016-Jun-23 11:33N 55°57' E 012°39'2 1.7
2016-Jun-23 10:33N 55°57' E 012°41'3 3.5
2016-Jun-23 09:33N 56°01' E 012°41'1 1.2
2016-Jun-23 08:33N 55°60' E 012°42'1 0.6
2016-Jun-23 07:31N 56°00' E 012°41'2 1.0
2016-Jun-23 05:32N 55°60' E 012°45'0 0.0
2016-Jun-23 04:29N 55°60' E 012°45'0 0.0
2016-Jun-23 03:32N 55°60' E 012°45'0 0.0
2016-Jun-23 02:32N 55°60' E 012°45'0 0.0
2016-Jun-23 01:26N 55°60' E 012°45'0 0.0
2016-Jun-23 00:32N 55°60' E 012°45'0 0.0
2016-Jun-22 23:32N 55°60' E 012°45'0 0.0
2016-Jun-22 22:32N 55°60' E 012°45'0 0.0
2016-Jun-22 21:29N 55°60' E 012°45'0 0.0
2016-Jun-22 20:32N 55°60' E 012°45'0 0.0
2016-Jun-22 19:29N 55°60' E 012°45'0 0.0
2016-Jun-22 18:20N 55°60' E 012°45'0 0.0
2016-Jun-22 17:26N 55°60' E 012°45'2 0.2
2016-Jun-22 09:33N 56°01' E 012°42'1 0.5
2016-Jun-22 08:32N 55°60' E 012°42'0 0.2
2016-Jun-22 07:31N 55°60' E 012°42'1 0.8
2016-Jun-22 06:09N 55°59' E 012°43'1 0.3
2016-Jun-22 02:24N 55°60' E 012°45'  

Dump ship's entire track history